createdAt,value
2019-01-29T00:00:47.745Z,32.33
2019-01-29T00:03:19.076Z,32.37
2019-01-29T00:05:47.668Z,33.37
2019-01-29T00:08:16.350Z,33.33
2019-01-29T00:10:44.959Z,36.73
2019-01-29T00:13:13.562Z,30.03
2019-01-29T00:15:44.882Z,36.67
2019-01-29T00:18:13.539Z,33.43
2019-01-29T00:20:44.905Z,30.07
2019-01-29T00:23:16.537Z,39.53
2019-01-29T00:25:45.463Z,36.27
2019-01-29T00:28:14.140Z,33.87
2019-01-29T00:30:45.716Z,35.60
2019-01-29T00:33:17.095Z,41.57
2019-01-29T00:35:48.670Z,33.33
2019-01-29T00:38:17.382Z,30.70
2019-01-29T00:40:45.988Z,34.13
2019-01-29T00:43:14.541Z,30.50
2019-01-29T00:45:43.132Z,35.13
2019-01-29T00:48:14.650Z,33.27
2019-01-29T00:50:46.278Z,31.87
2019-01-29T00:53:17.547Z,31.47
2019-01-29T00:55:46.568Z,30.60
2019-01-29T00:58:15.177Z,31.27
2019-01-29T01:00:43.771Z,30.53
2019-01-29T01:03:15.229Z,29.47
2019-01-29T01:05:43.886Z,28.63
2019-01-29T01:08:12.432Z,24.00
2019-01-29T01:10:41.095Z,24.03
2019-01-29T01:13:12.784Z,25.97
2019-01-29T01:15:44.014Z,20.87
2019-01-29T01:18:15.596Z,21.60
2019-01-29T01:20:47.280Z,22.03
2019-01-29T01:23:15.939Z,17.40
2019-01-29T01:25:44.602Z,20.67
2019-01-29T01:28:13.220Z,15.37
2019-01-29T01:30:47.633Z,18.43
2019-01-29T01:33:16.275Z,15.27
2019-01-29T01:35:48.190Z,15.97
2019-01-29T01:38:16.772Z,22.70
2019-01-29T01:40:45.363Z,22.70
2019-01-29T01:43:13.949Z,23.20
2019-01-29T01:45:42.590Z,18.57
2019-01-29T01:48:14.382Z,21.23
2019-01-29T01:50:45.831Z,23.13
2019-01-29T01:53:14.583Z,24.60
2019-01-29T01:55:43.184Z,26.73
2019-01-29T01:58:14.898Z,27.47
2019-01-29T02:00:46.223Z,24.73
2019-01-29T02:03:14.888Z,19.97
2019-01-29T02:05:46.411Z,20.03
2019-01-29T02:08:15.010Z,17.20
2019-01-29T02:10:43.666Z,18.17
2019-01-29T02:13:15.342Z,15.57
2019-01-29T02:15:46.890Z,19.67
2019-01-29T02:18:15.547Z,14.27
2019-01-29T02:20:46.800Z,11.57
2019-01-29T02:23:18.312Z,15.13
2019-01-29T02:25:46.902Z,14.37
2019-01-29T02:28:15.495Z,13.07
2019-01-29T02:30:47.074Z,10.50
2019-01-29T02:33:18.587Z,14.10
2019-01-29T02:35:47.250Z,16.00
2019-01-29T02:38:15.844Z,13.83
2019-01-29T02:40:44.382Z,13.97
2019-01-29T02:43:12.986Z,13.33
2019-01-29T02:45:43.495Z,13.93
2019-01-29T02:48:14.827Z,17.70
2019-01-29T02:50:46.188Z,16.70
2019-01-29T02:53:18.472Z,17.70
2019-01-29T02:55:45.041Z,19.40
2019-01-29T02:58:13.675Z,16.10
2019-01-29T03:00:42.185Z,18.40
2019-01-29T03:03:12.575Z,15.83
2019-01-29T03:05:44.110Z,14.70
2019-01-29T03:08:12.671Z,17.77
2019-01-29T03:10:42.815Z,18.47
2019-01-29T03:13:14.074Z,20.13
2019-01-29T03:15:42.764Z,14.97
2019-01-29T03:18:11.386Z,14.57
2019-01-29T03:20:39.998Z,14.90
2019-01-29T03:23:10.517Z,12.90
2019-01-29T03:25:39.195Z,12.33
2019-01-29T03:28:07.775Z,13.60
2019-01-29T03:30:36.335Z,13.40
2019-01-29T03:33:05.819Z,12.00
2019-01-29T03:35:34.427Z,19.07
2019-01-29T03:38:03.053Z,16.37
2019-01-29T03:40:31.766Z,17.17
2019-01-29T03:43:00.318Z,12.93
2019-01-29T03:45:31.890Z,13.73
2019-01-29T03:48:03.381Z,11.37
2019-01-29T03:50:34.755Z,14.67
2019-01-29T03:53:03.658Z,11.60
2019-01-29T03:55:32.332Z,15.60
2019-01-29T03:58:00.951Z,17.57
2019-01-29T04:00:29.875Z,13.70
2019-01-29T04:02:58.883Z,17.17
2019-01-29T04:05:30.667Z,14.83
2019-01-29T04:08:01.982Z,13.67
2019-01-29T04:10:33.436Z,17.37
2019-01-29T04:13:02.060Z,22.40
2019-01-29T04:15:30.654Z,18.93
2019-01-29T04:17:59.783Z,19.67
2019-01-29T04:20:29.170Z,18.90
2019-01-29T04:22:57.749Z,22.60
2019-01-29T04:25:26.410Z,23.73
2019-01-29T04:27:55.020Z,22.63
2019-01-29T04:30:24.138Z,25.37
2019-01-29T04:32:53.169Z,23.80
2019-01-29T04:35:24.452Z,17.23
2019-01-29T04:37:53.070Z,28.90
2019-01-29T04:40:21.625Z,31.40
2019-01-29T04:42:50.216Z,26.00
2019-01-29T04:45:19.440Z,23.27
2019-01-29T04:47:48.152Z,29.73
2019-01-29T04:50:21.182Z,27.00
2019-01-29T04:52:52.764Z,29.33
2019-01-29T04:55:21.891Z,27.10
2019-01-29T04:57:50.530Z,32.80
2019-01-29T05:00:24.463Z,26.10
2019-01-29T05:02:53.025Z,26.73
2019-01-29T05:05:22.047Z,24.67
2019-01-29T05:07:50.979Z,25.50
2019-01-29T05:10:21.218Z,22.70
2019-01-29T05:12:49.940Z,25.93
2019-01-29T05:15:19.919Z,18.73
2019-01-29T05:18:07.872Z,21.05
2019-01-29T05:20:36.419Z,24.90
2019-01-29T05:23:05.165Z,21.33
2019-01-29T05:25:33.722Z,19.90
2019-01-29T05:28:05.307Z,18.20
2019-01-29T05:30:33.964Z,18.20
2019-01-29T05:33:02.556Z,18.00
2019-01-29T05:35:33.953Z,20.50
2019-01-29T05:38:04.137Z,19.00
2019-01-29T05:40:32.920Z,24.97
2019-01-29T05:43:01.602Z,18.17
2019-01-29T05:45:30.215Z,22.23
2019-01-29T05:48:01.488Z,22.37
2019-01-29T05:50:33.063Z,17.30
2019-01-29T05:53:01.672Z,22.62
2019-01-29T05:55:30.292Z,18.90
2019-01-29T05:58:01.594Z,23.57
2019-01-29T06:00:34.800Z,22.10
2019-01-29T06:03:03.392Z,18.73
2019-01-29T06:05:32.024Z,21.95
2019-01-29T06:08:00.625Z,21.20
2019-01-29T06:10:29.184Z,21.10
2019-01-29T06:12:58.056Z,28.62
2019-01-29T06:15:26.765Z,17.23
2019-01-29T06:17:55.370Z,16.42
2019-01-29T06:20:31.474Z,22.10
2019-01-29T06:23:06.932Z,17.27
2019-01-29T06:25:35.577Z,25.27
2019-01-29T06:28:07.267Z,17.80
2019-01-29T06:30:35.880Z,16.67
2019-01-29T06:33:04.669Z,21.07
2019-01-29T06:35:33.259Z,19.80
2019-01-29T06:38:01.853Z,16.77
2019-01-29T06:40:30.521Z,21.23
2019-01-29T06:43:01.847Z,16.95
2019-01-29T06:45:33.514Z,20.90
2019-01-29T06:48:02.104Z,14.20
2019-01-29T06:50:33.459Z,19.67
2019-01-29T06:53:02.110Z,30.82
2019-01-29T06:55:30.726Z,20.68
2019-01-29T06:58:02.378Z,16.35
2019-01-29T07:00:32.815Z,16.50
2019-01-29T07:03:02.071Z,16.12
2019-01-29T07:05:33.768Z,17.98
2019-01-29T07:08:05.347Z,16.32
2019-01-29T07:10:33.967Z,22.95
2019-01-29T07:13:02.688Z,22.67
2019-01-29T07:18:59.816Z,13.68
2019-01-29T07:21:28.480Z,12.82
2019-01-29T07:23:59.667Z,18.73
2019-01-29T07:26:29.618Z,13.05
2019-01-29T07:28:58.221Z,10.78
2019-01-29T07:31:26.835Z,17.50
2019-01-29T07:33:55.446Z,11.03
2019-01-29T07:36:24.053Z,10.27
2019-01-29T07:38:53.029Z,16.90
2019-01-29T07:41:22.444Z,23.32
2019-01-29T07:43:51.031Z,14.40
2019-01-29T07:46:23.855Z,15.77
2019-01-29T07:48:52.553Z,19.48
2019-01-29T07:51:23.239Z,14.25
2019-01-29T07:53:51.919Z,14.40
2019-01-29T07:56:35.248Z,17.40
2019-01-29T07:59:32.375Z,15.00
2019-01-29T08:01:59.313Z,19.65
2019-01-29T08:04:30.821Z,21.13
2019-01-29T08:06:59.525Z,16.00
2019-01-29T08:09:56.891Z,19.90
2019-01-29T08:12:30.196Z,19.23
2019-01-29T08:15:12.041Z,17.10
2019-01-29T08:17:42.425Z,17.23
2019-01-29T08:20:24.536Z,24.87
2019-01-29T08:22:58.705Z,20.43
2019-01-29T08:25:31.559Z,18.03
2019-01-29T08:28:22.402Z,17.77
2019-01-29T08:30:48.828Z,22.63
2019-01-29T08:33:17.591Z,16.97
2019-01-29T08:35:52.380Z,21.47
2019-01-29T08:38:35.359Z,18.47
2019-01-29T08:41:14.331Z,23.20
2019-01-29T08:43:53.026Z,21.30
2019-01-29T08:46:23.362Z,19.80
2019-01-29T08:48:52.308Z,20.73
2019-01-29T08:51:24.186Z,22.37
2019-01-29T08:53:53.205Z,16.70
2019-01-29T08:56:21.914Z,22.33
2019-01-29T08:58:53.497Z,17.87
2019-01-29T09:01:22.738Z,16.13
2019-01-29T09:03:51.461Z,20.43
2019-01-29T09:06:20.009Z,16.07
2019-01-29T09:08:48.685Z,13.97
2019-01-29T09:11:17.432Z,17.10
2019-01-29T09:13:46.070Z,16.90
2019-01-29T09:16:14.836Z,20.93
2019-01-29T09:18:43.443Z,15.53
2019-01-29T09:21:12.062Z,14.40
2019-01-29T09:23:43.633Z,28.50
2019-01-29T09:26:12.354Z,16.30
2019-01-29T09:28:42.423Z,14.67
2019-01-29T09:31:12.550Z,18.77
2019-01-29T09:33:44.118Z,10.90
2019-01-29T09:36:15.855Z,19.47
2019-01-29T09:38:44.402Z,20.60
2019-01-29T09:41:13.058Z,19.10
2019-01-29T09:43:43.318Z,16.30
2019-01-29T09:46:14.910Z,22.03
2019-01-29T09:48:46.441Z,14.10
2019-01-29T09:51:15.034Z,16.37
2019-01-29T09:53:43.815Z,15.07
2019-01-29T09:56:12.521Z,16.30
2019-01-29T09:58:43.897Z,12.60
2019-01-29T10:01:12.507Z,14.17
2019-01-29T10:03:44.407Z,24.77
2019-01-29T10:06:13.031Z,18.13
2019-01-29T10:08:45.832Z,13.83
2019-01-29T10:11:17.294Z,16.63
2019-01-29T10:13:48.891Z,14.43
2019-01-29T10:16:17.497Z,16.20
2019-01-29T10:18:48.873Z,15.93
2019-01-29T10:21:17.986Z,27.50
2019-01-29T10:23:46.620Z,17.33
2019-01-29T10:26:15.168Z,17.93
2019-01-29T10:28:47.022Z,14.53
2019-01-29T10:31:15.730Z,11.80
2019-01-29T10:33:47.117Z,14.10
2019-01-29T10:36:15.933Z,12.77
2019-01-29T10:38:44.653Z,14.93
2019-01-29T10:41:13.270Z,13.57
2019-01-29T10:43:44.862Z,14.73
2019-01-29T10:46:13.571Z,13.90
2019-01-29T10:48:42.208Z,17.30
2019-01-29T10:51:12.460Z,17.63
2019-01-29T10:53:43.784Z,21.90
2019-01-29T10:56:12.554Z,12.43
2019-01-29T10:58:44.219Z,10.50
2019-01-29T11:01:12.890Z,17.33
2019-01-29T11:03:43.449Z,15.03
2019-01-29T11:06:12.077Z,16.90
2019-01-29T11:08:43.649Z,18.10
2019-01-29T11:11:14.999Z,15.43
2019-01-29T11:13:43.684Z,13.33
2019-01-29T11:16:12.292Z,17.13
2019-01-29T11:18:43.936Z,21.23
2019-01-29T11:21:15.245Z,13.73
2019-01-29T11:23:43.858Z,12.47
2019-01-29T11:26:12.568Z,17.37
2019-01-29T11:28:44.041Z,32.03
2019-01-29T11:31:12.656Z,13.07
2019-01-29T11:33:43.927Z,14.13
2019-01-29T11:36:15.462Z,11.10
2019-01-29T11:38:46.670Z,13.30
2019-01-29T11:41:15.697Z,14.33
2019-01-29T11:43:47.686Z,15.80
2019-01-29T11:46:16.497Z,15.40
2019-01-29T11:48:45.058Z,15.70
2019-01-29T11:51:13.719Z,12.10
2019-01-29T11:53:45.232Z,12.33
2019-01-29T11:56:13.827Z,15.40
2019-01-29T11:58:45.290Z,12.80
2019-01-29T12:01:13.955Z,17.67
2019-01-29T12:03:45.195Z,18.30
2019-01-29T12:06:13.795Z,26.27
2019-01-29T12:08:42.465Z,20.07
2019-01-29T12:11:14.001Z,24.10
2019-01-29T12:13:45.725Z,20.73
2019-01-29T12:16:14.457Z,15.33
2019-01-29T12:18:45.972Z,22.67
2019-01-29T12:21:14.576Z,16.53
2019-01-29T12:23:43.198Z,24.77
2019-01-29T12:26:15.094Z,16.63
2019-01-29T12:28:43.682Z,25.23
2019-01-29T12:31:12.274Z,20.83
2019-01-29T12:33:42.376Z,26.90
2019-01-29T12:36:12.458Z,19.10
2019-01-29T12:38:44.021Z,21.00
2019-01-29T12:41:15.401Z,18.83
2019-01-29T12:43:46.763Z,15.77
2019-01-29T12:46:15.370Z,19.10
2019-01-29T12:48:46.729Z,20.30
2019-01-29T12:51:16.908Z,23.93
2019-01-29T12:53:45.521Z,22.80
2019-01-29T12:56:21.534Z,16.23
2019-01-29T12:58:47.364Z,17.57
2019-01-29T13:01:32.351Z,23.73
2019-01-29T13:04:01.167Z,23.70
2019-01-29T13:06:30.187Z,15.70
2019-01-29T13:08:59.766Z,19.73
2019-01-29T13:11:28.428Z,20.73
2019-01-29T13:13:57.048Z,14.07
2019-01-29T13:16:25.752Z,14.20
2019-01-29T13:18:54.297Z,12.70
2019-01-29T13:21:22.890Z,19.10
2019-01-29T13:23:51.885Z,22.50
2019-01-29T13:26:20.496Z,9.37
2019-01-29T13:28:49.110Z,13.90
2019-01-29T13:31:17.909Z,13.73
2019-01-29T13:33:46.529Z,10.70
2019-01-29T13:36:15.138Z,11.57
2019-01-29T13:38:43.846Z,9.53
2019-01-29T13:41:12.535Z,8.10
2019-01-29T13:43:44.295Z,9.83
2019-01-29T13:46:12.964Z,8.23
2019-01-29T13:48:44.405Z,8.13
2019-01-29T13:51:12.945Z,9.63
2019-01-29T13:53:43.106Z,8.13
2019-01-29T13:56:13.359Z,13.03
2019-01-29T13:58:47.628Z,11.20
2019-01-29T14:01:16.284Z,11.13
2019-01-29T14:03:44.943Z,13.10
2019-01-29T14:06:13.475Z,11.50
2019-01-29T14:08:45.057Z,8.50
2019-01-29T14:11:16.586Z,10.33
2019-01-29T14:13:45.502Z,16.67
2019-01-29T14:16:14.112Z,9.60
2019-01-29T14:18:45.667Z,12.20
2019-01-29T14:21:14.402Z,11.20
2019-01-29T14:23:42.983Z,8.07
2019-01-29T14:26:14.604Z,8.23
2019-01-29T14:28:45.966Z,11.70
2019-01-29T14:31:14.675Z,12.37
2019-01-29T14:33:46.253Z,9.63
2019-01-29T14:36:16.729Z,15.80
2019-01-29T14:38:51.118Z,12.33
2019-01-29T14:41:20.326Z,12.57
2019-01-29T14:43:49.630Z,13.80
2019-01-29T14:46:19.566Z,11.97
2019-01-29T14:48:48.861Z,12.90
2019-01-29T14:51:17.786Z,10.83
2019-01-29T14:53:49.337Z,17.37
2019-01-29T14:56:18.514Z,7.60
2019-01-29T14:58:48.126Z,12.57
2019-01-29T15:01:20.507Z,11.80
2019-01-29T15:03:52.124Z,18.03
2019-01-29T15:06:20.840Z,9.60
2019-01-29T15:08:49.427Z,14.27
2019-01-29T15:11:21.243Z,28.30
2019-01-29T15:13:49.963Z,10.33
2019-01-29T15:16:20.330Z,15.33
2019-01-29T15:19:05.262Z,7.30
2019-01-29T15:21:37.998Z,20.20
2019-01-29T15:24:07.402Z,12.93
2019-01-29T15:26:37.414Z,11.57
2019-01-29T15:29:06.328Z,8.30
2019-01-29T15:31:34.940Z,9.43
2019-01-29T15:34:03.684Z,13.20
2019-01-29T15:36:32.606Z,11.43
2019-01-29T15:39:01.297Z,13.97
2019-01-29T15:41:29.909Z,8.73
2019-01-29T15:44:01.893Z,7.63
2019-01-29T15:46:30.501Z,16.23
2019-01-29T15:49:02.088Z,8.67
2019-01-29T15:51:30.642Z,12.10
2019-01-29T15:53:59.305Z,9.40
2019-01-29T15:56:27.851Z,11.93
2019-01-29T15:58:56.928Z,9.03
2019-01-29T16:01:28.187Z,9.57
2019-01-29T16:03:56.853Z,11.00
2019-01-29T16:06:28.803Z,10.67
2019-01-29T16:09:00.442Z,12.10
2019-01-29T16:11:32.061Z,11.13
2019-01-29T16:14:04.229Z,11.37
2019-01-29T16:16:33.555Z,14.70
2019-01-29T16:19:05.328Z,12.60
2019-01-29T16:21:34.341Z,13.50
2019-01-29T16:24:02.955Z,14.03
2019-01-29T16:26:31.537Z,10.27
2019-01-29T16:29:00.095Z,17.63
2019-01-29T16:31:29.014Z,11.47
2019-01-29T16:33:57.550Z,10.00
2019-01-29T16:36:26.148Z,10.90
2019-01-29T16:38:58.139Z,11.80
2019-01-29T16:41:26.738Z,11.93
2019-01-29T16:43:58.740Z,13.17
2019-01-29T16:46:27.289Z,9.80
2019-01-29T16:48:58.833Z,13.93
2019-01-29T16:51:30.416Z,10.20
2019-01-29T16:53:59.013Z,9.50
2019-01-29T16:56:27.738Z,11.63
2019-01-29T16:59:01.319Z,20.17
2019-01-29T17:01:29.873Z,13.53
2019-01-29T17:03:58.413Z,20.53
2019-01-29T17:06:29.762Z,15.20
2019-01-29T17:08:58.712Z,17.33
2019-01-29T17:11:30.052Z,15.73
2019-01-29T17:14:01.266Z,18.47
2019-01-29T17:16:32.921Z,19.87
2019-01-29T17:19:04.314Z,21.70
2019-01-29T17:21:33.274Z,17.27
2019-01-29T17:24:04.608Z,14.43
2019-01-29T17:26:33.266Z,15.33
2019-01-29T17:29:05.630Z,11.87
2019-01-29T17:31:37.133Z,18.03
2019-01-29T17:34:08.785Z,18.80
2019-01-29T17:36:37.640Z,11.57
2019-01-29T17:39:07.867Z,12.57
2019-01-29T17:41:36.578Z,11.27
2019-01-29T17:44:05.810Z,12.57
2019-01-29T17:46:37.619Z,17.23
2019-01-29T17:49:09.714Z,16.87
2019-01-29T17:51:44.137Z,9.63
2019-01-29T17:54:15.377Z,13.53
2019-01-29T17:56:44.261Z,15.80
2019-01-29T17:59:12.880Z,10.23
2019-01-29T18:01:41.556Z,13.93
2019-01-29T18:04:10.178Z,16.80
2019-01-29T18:06:38.846Z,14.20
2019-01-29T18:09:11.434Z,12.70
2019-01-29T18:11:40.035Z,10.23
2019-01-29T18:14:10.629Z,16.93
2019-01-29T18:16:38.857Z,9.00
2019-01-29T18:19:07.545Z,22.77
2019-01-29T18:21:40.264Z,10.93
2019-01-29T18:24:08.875Z,17.17
2019-01-29T18:26:37.417Z,16.13
2019-01-29T18:29:06.124Z,13.67
2019-01-29T18:31:34.636Z,16.07
2019-01-29T18:34:06.001Z,11.10
2019-01-29T18:36:34.604Z,10.43
2019-01-29T18:39:05.140Z,15.47
2019-01-29T18:41:34.236Z,12.43
2019-01-29T18:44:02.931Z,9.73
2019-01-29T18:46:31.520Z,12.97
2019-01-29T18:49:00.223Z,16.40
2019-01-29T18:51:28.791Z,17.83
2019-01-29T18:54:00.158Z,14.80
2019-01-29T18:56:28.758Z,29.03
2019-01-29T18:59:00.337Z,11.87
2019-01-29T19:01:28.899Z,13.43
2019-01-29T19:04:00.892Z,22.73
2019-01-29T19:06:29.808Z,13.07
2019-01-29T19:08:58.519Z,17.03
2019-01-29T19:11:27.137Z,18.60
2019-01-29T19:13:55.719Z,22.27
2019-01-29T19:16:24.365Z,14.83
2019-01-29T19:18:54.747Z,19.23
2019-01-29T19:21:23.427Z,16.63
2019-01-29T19:23:52.037Z,14.30
2019-01-29T19:26:20.603Z,19.33
2019-01-29T19:28:49.200Z,26.60
2019-01-29T19:31:17.868Z,17.77
2019-01-29T19:33:49.216Z,18.23
2019-01-29T19:36:20.618Z,22.43
2019-01-29T19:38:49.302Z,16.10
2019-01-29T19:41:17.894Z,12.10
2019-01-29T19:43:46.882Z,14.80
2019-01-29T19:46:18.659Z,14.83
2019-01-29T19:48:47.302Z,17.97
2019-01-29T19:51:16.029Z,18.93
2019-01-29T19:53:44.793Z,13.77
2019-01-29T19:56:13.482Z,19.50
2019-01-29T19:58:45.034Z,16.17
2019-01-29T20:01:16.714Z,16.67
2019-01-29T20:03:45.314Z,11.17
2019-01-29T20:06:15.448Z,17.80
2019-01-29T20:08:44.340Z,21.87
2019-01-29T20:11:15.824Z,19.13
2019-01-29T20:13:45.062Z,19.17
2019-01-29T20:16:13.740Z,18.10
2019-01-29T20:18:42.780Z,14.50
2019-01-29T20:21:14.102Z,16.93
2019-01-29T20:23:42.671Z,13.17
2019-01-29T20:26:14.146Z,18.57
2019-01-29T20:28:45.834Z,22.17
2019-01-29T20:31:15.072Z,23.10
2019-01-29T20:33:46.754Z,26.00
2019-01-29T20:36:19.820Z,13.50
2019-01-29T20:38:48.479Z,19.63
2019-01-29T20:41:17.303Z,15.70
2019-01-29T20:43:46.040Z,16.70
2019-01-29T20:46:17.418Z,19.00
2019-01-29T20:48:46.452Z,16.80
2019-01-29T20:51:15.095Z,19.13
2019-01-29T20:53:46.810Z,12.93
2019-01-29T20:56:15.437Z,10.50
2019-01-29T20:58:52.484Z,10.20
2019-01-29T21:01:14.425Z,21.43
2019-01-29T21:03:45.765Z,17.83
2019-01-29T21:06:14.413Z,16.00
2019-01-29T21:08:45.677Z,16.27
2019-01-29T21:11:14.308Z,17.60
2019-01-29T21:13:43.178Z,16.10
2019-01-29T21:16:14.724Z,18.13
2019-01-29T21:18:43.273Z,18.83
2019-01-29T21:21:15.209Z,21.60
2019-01-29T21:23:43.768Z,22.98
2019-01-29T21:26:12.815Z,23.83
2019-01-29T21:28:41.450Z,25.80
2019-01-29T21:31:10.214Z,22.60
2019-01-29T21:33:45.137Z,23.50
2019-01-29T21:36:13.825Z,23.00
2019-01-29T21:38:42.560Z,21.33
2019-01-29T21:41:14.329Z,23.40
2019-01-29T21:43:45.730Z,21.33
2019-01-29T21:46:14.538Z,27.13
2019-01-29T21:48:43.098Z,28.80
2019-01-29T21:51:16.219Z,28.00
2019-01-29T21:53:44.874Z,30.88
2019-01-29T21:56:16.426Z,28.98
2019-01-29T21:58:45.061Z,31.15
2019-01-29T22:01:13.677Z,32.73
2019-01-29T22:03:44.968Z,36.93
2019-01-29T22:06:13.583Z,33.73
2019-01-29T22:08:42.190Z,34.37
2019-01-29T22:11:12.373Z,31.95
2019-01-29T22:13:42.523Z,29.55
2019-01-29T22:16:14.093Z,29.35
2019-01-29T22:18:42.681Z,35.23
2019-01-29T22:21:14.497Z,23.55
2019-01-29T22:23:43.162Z,26.87
2019-01-29T22:26:14.482Z,29.50
2019-01-29T22:28:43.172Z,30.93
2019-01-29T22:31:14.776Z,25.43
2019-01-29T22:33:43.387Z,32.13
2019-01-29T22:36:12.036Z,30.23
2019-01-29T22:38:43.601Z,27.20
2019-01-29T22:41:14.995Z,26.17
2019-01-29T22:43:43.609Z,30.43
2019-01-29T22:46:12.227Z,23.27
2019-01-29T22:48:42.473Z,26.63
2019-01-29T22:51:14.269Z,29.53
2019-01-29T22:53:42.875Z,27.23
2019-01-29T22:56:13.033Z,26.17
2019-01-29T22:58:42.273Z,29.60
2019-01-29T23:01:16.491Z,26.52
2019-01-29T23:03:45.434Z,30.77
2019-01-29T23:06:26.103Z,20.23
2019-01-29T23:08:54.736Z,20.10
2019-01-29T23:11:23.374Z,19.67
2019-01-29T23:13:52.269Z,32.00
2019-01-29T23:16:23.723Z,19.57
2019-01-29T23:18:52.597Z,25.93
2019-01-29T23:21:21.265Z,19.67
2019-01-29T23:23:52.642Z,33.83
2019-01-29T23:26:21.352Z,32.08
2019-01-29T23:28:52.420Z,27.27
2019-01-29T23:31:23.417Z,24.90
2019-01-29T23:33:52.017Z,26.30
2019-01-29T23:36:20.623Z,26.30
2019-01-29T23:38:52.275Z,40.65
2019-01-29T23:41:23.510Z,27.48
2019-01-29T23:43:54.828Z,37.65
2019-01-29T23:46:26.403Z,31.93
2019-01-29T23:48:55.031Z,37.10
2019-01-29T23:51:23.603Z,27.42
2019-01-29T23:53:52.264Z,29.02
2019-01-29T23:56:20.884Z,24.75
2019-01-29T23:58:49.577Z,30.70
